Time;durP1;ratioP1;P1;durP2;ratioP2;P2;SDS_P1;SDS_P2;PMS_P1;PMS_P2;Temp;Humidity;BMP_temperature;BMP_pressure;BME280_temperature;BME280_humidity;BME280_pressure;Samples;Min_cycle;Max_cycle;Signal;HPM_P1;HPM_P2
2023/02/07 00:01:17;;;;;;;56.17;50.97;;;-2.50;93.00;;;;;;4993878;28;20208;-87
2023/02/07 00:03:43;;;;;;;50.30;45.87;;;-2.50;92.90;;;;;;4995054;28;20263;-86
2023/02/07 00:06:15;;;;;;;53.93;48.63;;;-2.50;93.00;;;;;;4993897;28;20193;-88
2023/02/07 00:08:42;;;;;;;52.07;47.07;;;-2.30;93.10;;;;;;4995104;28;20173;-87
2023/02/07 00:11:10;;;;;;;51.80;47.20;;;-2.30;93.10;;;;;;4994942;28;20746;-87
2023/02/07 00:13:36;;;;;;;55.30;50.10;;;-2.30;93.10;;;;;;4993787;28;20193;-87
2023/02/07 00:16:03;;;;;;;51.83;47.37;;;-2.30;93.10;;;;;;4993608;28;20185;-86
2023/02/07 00:18:29;;;;;;;49.67;45.20;;;-2.20;93.10;;;;;;4993915;28;20228;-87
2023/02/07 00:21:04;;;;;;;49.33;44.77;;;-2.20;93.10;;;;;;4994042;28;20656;-87
2023/02/07 00:23:30;;;;;;;47.07;42.67;;;-2.30;93.10;;;;;;4993710;28;20181;-87
2023/02/07 00:25:55;;;;;;;46.30;42.00;;;-2.40;93.00;;;;;;4993548;28;20186;-87
2023/02/07 00:28:21;;;;;;;47.13;42.37;;;-2.50;93.00;;;;;;4993674;28;20186;-87
2023/02/07 00:30:47;;;;;;;45.77;41.17;;;-2.50;93.00;;;;;;4994537;28;20206;-87
2023/02/07 00:33:12;;;;;;;45.10;41.13;;;-2.50;93.10;;;;;;4993280;28;20324;-87
2023/02/07 00:35:38;;;;;;;44.43;40.43;;;-2.50;93.10;;;;;;4993324;28;20238;-87
2023/02/07 00:38:03;;;;;;;41.43;37.83;;;-2.50;93.10;;;;;;4994396;28;20201;-87
2023/02/07 00:40:29;;;;;;;44.73;40.63;;;-2.50;93.10;;;;;;4993939;28;20179;-87
2023/02/07 00:42:54;;;;;;;47.90;43.37;;;-2.50;93.10;;;;;;4994343;28;20185;-87
2023/02/07 00:45:20;;;;;;;44.63;40.10;;;-2.50;93.10;;;;;;4993110;28;20531;-86
2023/02/07 00:47:46;;;;;;;44.57;40.53;;;-2.50;93.10;;;;;;4993214;28;20185;-88
2023/02/07 00:50:11;;;;;;;42.00;38.23;;;-2.50;93.10;;;;;;4993143;28;20228;-86
2023/02/07 00:52:37;;;;;;;40.63;36.97;;;-2.60;93.10;;;;;;4993004;28;20236;-87
2023/02/07 00:55:02;;;;;;;39.63;36.03;;;-2.60;93.10;;;;;;4993255;28;20185;-87
2023/02/07 00:57:28;;;;;;;39.83;36.33;;;-2.60;93.10;;;;;;4994217;28;20570;-87
2023/02/07 00:59:53;;;;;;;38.53;34.83;;;-2.60;93.10;;;;;;4993025;28;20176;-87
2023/02/07 01:02:19;;;;;;;38.67;34.87;;;-2.60;93.10;;;;;;4993067;28;20208;-86
2023/02/07 01:04:44;;;;;;;38.90;34.53;;;-2.60;93.00;;;;;;4993020;28;20172;-88
2023/02/07 01:07:10;;;;;;;40.70;36.80;;;-2.60;93.10;;;;;;4994449;28;20588;-87
2023/02/07 01:09:35;;;;;;;40.40;37.10;;;-2.60;93.10;;;;;;4992956;28;20181;-88
2023/02/07 01:12:01;;;;;;;39.37;35.37;;;-2.60;93.00;;;;;;4993603;28;20193;-88
2023/02/07 01:14:26;;;;;;;38.67;35.03;;;-2.60;93.10;;;;;;4994155;28;20698;-87
2023/02/07 01:16:52;;;;;;;37.03;33.97;;;-2.60;93.10;;;;;;4993633;28;20189;-87
2023/02/07 01:19:18;;;;;;;35.43;31.93;;;-2.60;93.00;;;;;;4992645;28;20213;-86
2023/02/07 01:21:44;;;;;;;39.07;35.43;;;-2.70;93.00;;;;;;4992757;28;20201;-88
2023/02/07 01:24:09;;;;;;;32.90;29.73;;;-2.60;93.10;;;;;;4994083;28;20181;-87
2023/02/07 01:26:36;;;;;;;35.03;31.93;;;-2.70;93.00;;;;;;4992719;28;20170;-87
2023/02/07 01:29:02;;;;;;;32.37;29.53;;;-2.70;93.00;;;;;;4992640;28;20681;-88
2023/02/07 01:31:28;;;;;;;31.50;28.63;;;-2.80;92.90;;;;;;4993880;28;20275;-88
2023/02/07 01:33:55;;;;;;;32.27;29.07;;;-2.80;92.90;;;;;;4992685;28;20239;-88
2023/02/07 01:36:21;;;;;;;33.50;30.57;;;-2.80;92.90;;;;;;4993997;28;20206;-88
2023/02/07 01:38:47;;;;;;;37.50;33.67;;;-2.80;92.90;;;;;;4993854;28;20647;-88
2023/02/07 01:41:13;;;;;;;38.40;34.63;;;-2.50;93.20;;;;;;4992203;28;20293;-88
2023/02/07 01:43:54;;;;;;;37.47;33.73;;;-2.60;93.10;;;;;;4993952;28;20162;-87
2023/02/07 01:46:19;;;;;;;36.43;33.07;;;-2.60;93.00;;;;;;4992649;28;20181;-88
2023/02/07 01:48:45;;;;;;;34.10;30.57;;;-2.60;93.00;;;;;;4992613;28;20553;-87
2023/02/07 01:51:11;;;;;;;39.40;35.83;;;-2.70;93.00;;;;;;4993926;28;20625;-88
2023/02/07 01:53:37;;;;;;;38.33;34.47;;;-2.70;93.00;;;;;;4994603;28;20604;-87
2023/02/07 01:56:08;;;;;;;38.33;34.90;;;-2.60;93.10;;;;;;4996281;28;20182;-87
2023/02/07 01:58:35;;;;;;;36.87;33.20;;;-2.70;93.10;;;;;;4996526;28;20576;-87
2023/02/07 02:01:04;;;;;;;36.20;32.73;;;-2.80;93.10;;;;;;4996379;28;20681;-87
2023/02/07 02:03:33;;;;;;;35.93;32.17;;;-2.80;93.10;;;;;;4996339;28;20180;-87
2023/02/07 02:05:58;;;;;;;37.50;33.67;;;-2.70;93.10;;;;;;4996397;28;20189;-87
2023/02/07 02:08:24;;;;;;;35.87;32.47;;;-2.80;93.20;;;;;;4996145;28;20181;-87
2023/02/07 02:11:04;;;;;;;37.10;33.63;;;-2.70;93.10;;;;;;4997455;28;20244;-88
2023/02/07 02:13:34;;;;;;;36.97;33.47;;;-2.70;93.20;;;;;;4996662;28;20174;-88
2023/02/07 02:16:31;;;;;;;38.17;34.60;;;-2.60;93.30;;;;;;4996104;28;20170;-87
2023/02/07 02:19:15;;;;;;;38.60;35.30;;;-2.60;93.30;;;;;;4995858;28;20225;-87
2023/02/07 02:21:46;;;;;;;37.30;34.10;;;-2.60;93.20;;;;;;4997256;28;20197;-87
2023/02/07 02:24:15;;;;;;;39.17;35.60;;;-2.60;93.20;;;;;;4996069;28;20268;-88
2023/02/07 02:26:59;;;;;;;39.33;36.03;;;-2.50;93.30;;;;;;4995979;28;20177;-88
2023/02/07 02:30:00;;;;;;;41.93;38.17;;;-2.60;93.20;;;;;;4996068;28;20177;-88
2023/02/07 02:32:40;;;;;;;43.53;39.67;;;-2.40;93.30;;;;;;4997596;28;20198;-87
2023/02/07 02:35:16;;;;;;;44.93;41.33;;;-2.30;93.30;;;;;;4996033;28;20173;-87
2023/02/07 02:37:46;;;;;;;42.97;39.43;;;-2.30;93.30;;;;;;4995952;28;20284;-88
2023/02/07 02:40:22;;;;;;;43.97;40.00;;;-2.40;93.20;;;;;;4995825;28;20224;-88
2023/02/07 02:43:18;;;;;;;41.03;37.63;;;-2.30;93.20;;;;;;4996991;28;20189;-88
2023/02/07 02:46:09;;;;;;;41.40;37.53;;;-2.40;93.20;;;;;;4996982;28;20173;-88
2023/02/07 02:48:35;;;;;;;40.60;36.90;;;-2.50;93.10;;;;;;4997107;28;20246;-87
2023/02/07 02:51:01;;;;;;;39.90;36.17;;;-2.50;93.10;;;;;;4996828;28;20201;-88
2023/02/07 02:53:26;;;;;;;39.00;35.13;;;-2.50;93.20;;;;;;4995536;28;20552;-88
2023/02/07 02:56:06;;;;;;;39.00;35.70;;;-2.60;93.10;;;;;;4996813;28;20185;-87
2023/02/07 02:58:52;;;;;;;34.43;31.57;;;-2.60;93.20;;;;;;4995246;28;20285;-88
2023/02/07 03:01:35;;;;;;;38.33;35.20;;;-2.60;93.10;;;;;;5011339;28;20212;-87
2023/02/07 03:04:38;;;;;;;34.97;31.73;;;-2.70;93.10;;;;;;4996342;28;20241;-87
2023/02/07 03:07:20;;;;;;;35.87;32.97;;;-2.60;93.20;;;;;;4995306;28;20186;-88
2023/02/07 03:10:02;;;;;;;36.10;32.70;;;-2.70;93.10;;;;;;4995392;28;20182;-88
2023/02/07 03:12:33;;;;;;;35.47;32.07;;;-2.70;93.10;;;;;;4995217;28;20291;-87
2023/02/07 03:14:59;;;;;;;36.30;32.83;;;-2.70;93.20;;;;;;4995257;28;20181;-88
2023/02/07 03:17:31;;;;;;;34.77;31.33;;;-2.70;93.20;;;;;;4995033;28;20182;-87
2023/02/07 03:19:59;;;;;;;35.67;32.37;;;-2.80;93.10;;;;;;4995237;28;20629;-87
2023/02/07 03:22:27;;;;;;;34.90;31.90;;;-2.80;93.10;;;;;;4996361;28;20206;-88
2023/02/07 03:24:56;;;;;;;33.60;30.57;;;-2.80;93.10;;;;;;4995125;28;20192;-88
2023/02/07 03:27:24;;;;;;;34.63;31.37;;;-2.90;93.00;;;;;;4995061;28;20190;-88
2023/02/07 03:29:56;;;;;;;33.63;30.20;;;-2.90;93.00;;;;;;4995174;28;20208;-87
2023/02/07 03:32:25;;;;;;;33.60;30.43;;;-3.00;92.90;;;;;;4996496;28;20661;-87
2023/02/07 03:35:04;;;;;;;35.63;32.33;;;-3.00;93.00;;;;;;4996309;28;20169;-89
2023/02/07 03:37:41;;;;;;;31.97;28.30;;;-2.90;93.10;;;;;;4995254;28;20209;-88
2023/02/07 03:40:08;;;;;;;33.07;29.93;;;-2.90;93.00;;;;;;4995234;28;20172;-88
2023/02/07 03:42:47;;;;;;;31.83;29.13;;;-2.90;93.00;;;;;;4994697;28;20220;-87
2023/02/07 03:45:16;;;;;;;32.03;29.10;;;-2.90;93.00;;;;;;4996348;28;20182;-88
2023/02/07 03:47:42;;;;;;;30.70;28.10;;;-3.00;92.90;;;;;;4995663;28;20546;-87
2023/02/07 03:50:07;;;;;;;29.93;27.13;;;-3.00;92.90;;;;;;4996416;28;20169;-88
2023/02/07 03:52:33;;;;;;;27.57;25.17;;;-3.00;92.90;;;;;;4995114;28;20205;-87
2023/02/07 03:54:58;;;;;;;28.57;25.93;;;-3.00;92.80;;;;;;4995645;28;20606;-87
2023/02/07 03:57:24;;;;;;;27.50;24.80;;;-3.10;92.80;;;;;;4995154;28;20181;-88
2023/02/07 03:59:50;;;;;;;28.47;26.00;;;-3.10;92.70;;;;;;4995130;28;20177;-87
2023/02/07 04:02:15;;;;;;;27.17;24.77;;;-3.20;92.60;;;;;;4995104;28;20255;-88
2023/02/07 04:04:41;;;;;;;28.07;25.33;;;-3.20;92.70;;;;;;4996510;28;20250;-87
2023/02/07 04:07:06;;;;;;;26.67;24.27;;;-3.20;92.60;;;;;;4995137;28;20316;-88
2023/02/07 04:09:32;;;;;;;27.93;25.63;;;-3.20;92.60;;;;;;4994498;28;20178;-87
2023/02/07 04:11:57;;;;;;;28.30;25.67;;;-3.30;92.50;;;;;;4993557;28;20578;-87
2023/02/07 04:14:23;;;;;;;25.70;23.50;;;-3.30;92.50;;;;;;4993609;28;20652;-88
2023/02/07 04:16:49;;;;;;;27.30;24.67;;;-3.30;92.40;;;;;;4994172;28;20177;-88
2023/02/07 04:19:15;;;;;;;23.70;21.50;;;-3.30;92.40;;;;;;4993523;28;20594;-87
2023/02/07 04:21:41;;;;;;;27.00;24.50;;;-3.40;92.30;;;;;;4993545;28;20249;-87
2023/02/07 04:24:06;;;;;;;23.83;21.83;;;-3.40;92.30;;;;;;4993671;28;20175;-87
2023/02/07 04:26:32;;;;;;;27.23;24.83;;;-3.40;92.20;;;;;;4994838;28;20188;-87
2023/02/07 04:28:58;;;;;;;26.70;24.20;;;-3.40;92.20;;;;;;4993576;28;20213;-87
2023/02/07 04:31:23;;;;;;;25.53;22.83;;;-3.40;92.20;;;;;;4993418;28;20232;-87
2023/02/07 04:33:49;;;;;;;23.13;21.17;;;-3.40;92.10;;;;;;4993338;28;20178;-87
2023/02/07 04:36:14;;;;;;;24.97;22.77;;;-3.50;92.00;;;;;;4993247;28;20181;-88
2023/02/07 04:38:40;;;;;;;25.20;22.87;;;-3.50;91.90;;;;;;4993120;28;20208;-87
2023/02/07 04:41:06;;;;;;;23.47;21.47;;;-3.50;91.90;;;;;;4992970;28;20211;-87
2023/02/07 04:43:33;;;;;;;23.03;21.20;;;-3.60;91.80;;;;;;4994528;28;20286;-87
2023/02/07 04:45:59;;;;;;;22.77;20.40;;;-3.60;91.70;;;;;;4993131;28;20181;-87
2023/02/07 04:48:25;;;;;;;24.47;21.97;;;-3.60;91.70;;;;;;4994601;28;20204;-87
2023/02/07 04:50:50;;;;;;;24.63;22.43;;;-3.60;91.60;;;;;;4993301;28;20255;-88
2023/02/07 04:53:16;;;;;;;26.50;23.93;;;-3.60;91.60;;;;;;4993158;28;20187;-87
2023/02/07 04:55:41;;;;;;;25.90;23.63;;;-3.70;91.50;;;;;;4993164;28;20199;-87
2023/02/07 04:58:07;;;;;;;26.53;24.03;;;-3.60;91.60;;;;;;4993092;28;20208;-87
2023/02/07 05:00:33;;;;;;;27.10;24.67;;;-3.60;91.40;;;;;;4992942;28;20254;-88
2023/02/07 05:02:59;;;;;;;29.33;26.73;;;-3.70;91.40;;;;;;4992859;28;20722;-87
2023/02/07 05:05:24;;;;;;;28.57;25.97;;;-3.70;91.40;;;;;;4992808;28;20188;-87
2023/02/07 05:07:50;;;;;;;26.10;23.70;;;-3.60;91.40;;;;;;4994278;28;20647;-88
2023/02/07 05:10:16;;;;;;;25.43;23.07;;;-3.60;91.30;;;;;;4994067;28;20176;-88
2023/02/07 05:12:41;;;;;;;25.67;23.47;;;-3.70;91.30;;;;;;4992868;28;20188;-87
2023/02/07 05:15:07;;;;;;;27.17;24.77;;;-3.80;91.20;;;;;;4992771;28;20189;-87
2023/02/07 05:17:33;;;;;;;32.40;29.10;;;-3.80;91.10;;;;;;4993795;28;20211;-87
2023/02/07 05:20:00;;;;;;;28.20;25.60;;;-3.60;91.50;;;;;;4992909;28;20179;-87
2023/02/07 05:22:26;;;;;;;28.93;26.30;;;-3.60;91.40;;;;;;4992735;28;20240;-87
2023/02/07 05:24:51;;;;;;;26.53;24.07;;;-3.60;91.30;;;;;;4992819;28;20215;-87
2023/02/07 05:27:17;;;;;;;26.87;24.33;;;-3.70;91.30;;;;;;4994308;28;20175;-88
2023/02/07 05:29:42;;;;;;;27.37;24.87;;;-3.70;91.30;;;;;;4996831;28;20687;-88
2023/02/07 05:34:55;;;;;;;27.53;24.93;;;-3.70;91.40;;;;;;4998343;28;20178;-88
2023/02/07 05:37:21;;;;;;;27.57;24.97;;;-3.70;91.30;;;;;;4997683;28;20644;-87
2023/02/07 05:39:46;;;;;;;25.43;22.20;;;-3.80;91.20;;;;;;4996426;28;20173;-88
2023/02/07 05:42:12;;;;;;;25.87;23.30;;;-3.80;91.20;;;;;;4996519;28;20778;-88
2023/02/07 05:44:38;;;;;;;25.67;23.10;;;-3.80;91.20;;;;;;4996436;28;20175;-87
2023/02/07 05:47:03;;;;;;;27.97;25.17;;;-3.90;91.10;;;;;;4996343;28;20176;-88
2023/02/07 05:49:29;;;;;;;28.87;25.97;;;-3.90;91.10;;;;;;4996287;28;20564;-87
2023/02/07 05:51:54;;;;;;;27.23;24.37;;;-3.90;91.20;;;;;;4997531;28;20220;-87
2023/02/07 05:54:20;;;;;;;27.27;24.80;;;-3.90;91.20;;;;;;4996554;28;20684;-86
2023/02/07 05:56:45;;;;;;;28.50;25.83;;;-3.80;91.20;;;;;;4997847;28;20551;-88
2023/02/07 05:59:11;;;;;;;25.57;23.17;;;-3.80;91.20;;;;;;4996039;28;20234;-88
2023/02/07 06:01:36;;;;;;;26.50;24.00;;;-3.80;91.20;;;;;;4996075;28;20197;-88
2023/02/07 06:04:02;;;;;;;27.90;25.40;;;-3.80;91.20;;;;;;4996578;28;20658;-87
2023/02/07 06:06:27;;;;;;;29.07;26.13;;;-3.90;91.10;;;;;;4997246;28;20178;-88
2023/02/07 06:08:53;;;;;;;29.17;26.63;;;-3.90;91.10;;;;;;4995860;28;20602;-88
2023/02/07 06:11:18;;;;;;;29.23;26.73;;;-3.90;91.00;;;;;;4996972;28;20289;-87
2023/02/07 06:13:44;;;;;;;28.63;25.63;;;-3.90;91.00;;;;;;4995824;28;20206;-88
2023/02/07 06:16:09;;;;;;;30.57;27.27;;;-3.90;91.00;;;;;;4995988;28;20183;-88
2023/02/07 06:18:36;;;;;;;31.47;28.37;;;-3.80;91.10;;;;;;4997015;28;20214;-88
2023/02/07 06:21:02;;;;;;;29.67;26.90;;;-3.70;91.30;;;;;;4995656;28;20322;-88
2023/02/07 06:23:28;;;;;;;32.00;28.90;;;-3.70;91.30;;;;;;4995674;28;20586;-88
2023/02/07 06:25:53;;;;;;;31.47;28.27;;;-3.70;91.40;;;;;;4995615;28;20281;-88
2023/02/07 06:28:19;;;;;;;32.43;28.90;;;-3.70;91.60;;;;;;4995607;28;20219;-88
2023/02/07 06:30:44;;;;;;;30.53;27.80;;;-3.70;91.60;;;;;;4995554;28;20293;-88
2023/02/07 06:33:10;;;;;;;32.07;28.97;;;-3.80;91.60;;;;;;4995508;28;20175;-88
2023/02/07 06:35:36;;;;;;;31.33;28.03;;;-3.80;91.60;;;;;;4995531;28;20175;-88
2023/02/07 06:38:01;;;;;;;31.70;28.57;;;-3.80;91.60;;;;;;4995034;28;20262;-88
2023/02/07 06:40:27;;;;;;;34.17;30.90;;;-3.80;91.60;;;;;;4994705;28;20206;-89
2023/02/07 06:42:53;;;;;;;31.50;28.30;;;-3.60;91.90;;;;;;4995260;28;20194;-89
2023/02/07 06:45:19;;;;;;;29.67;26.80;;;-3.60;91.80;;;;;;4996477;28;20226;-89
2023/02/07 06:47:45;;;;;;;30.43;27.13;;;-3.60;91.80;;;;;;4995180;28;20179;-88
2023/02/07 06:50:10;;;;;;;32.10;28.63;;;-3.60;91.90;;;;;;4995936;28;20677;-87
2023/02/07 06:52:36;;;;;;;31.87;28.57;;;-3.60;91.90;;;;;;4997033;28;20574;-88
2023/02/07 06:55:02;;;;;;;34.97;31.57;;;-3.70;91.90;;;;;;4996777;28;20186;-87
2023/02/07 06:57:27;;;;;;;34.43;31.13;;;-3.80;91.90;;;;;;4995234;28;20178;-88
2023/02/07 06:59:53;;;;;;;37.50;33.80;;;-3.80;91.90;;;;;;4995203;28;20178;-88
2023/02/07 07:02:18;;;;;;;35.77;32.23;;;-3.70;92.00;;;;;;4995348;28;20328;-88
2023/02/07 07:04:44;;;;;;;34.33;30.90;;;-3.70;92.10;;;;;;4996783;28;20221;-88
2023/02/07 07:07:10;;;;;;;34.03;30.63;;;-3.70;92.10;;;;;;4995411;28;20667;-87
2023/02/07 07:09:35;;;;;;;33.90;30.40;;;-3.70;92.10;;;;;;4995423;28;20262;-87
2023/02/07 07:12:01;;;;;;;33.37;30.13;;;-3.60;92.10;;;;;;4995308;28;20704;-88
2023/02/07 07:14:27;;;;;;;36.33;32.70;;;-3.70;92.10;;;;;;4995535;28;20604;-87
2023/02/07 07:16:52;;;;;;;34.30;30.60;;;-3.60;92.20;;;;;;4995313;28;20656;-88
2023/02/07 07:19:18;;;;;;;34.67;30.97;;;-3.60;92.10;;;;;;4996465;28;20200;-87
2023/02/07 07:21:43;;;;;;;35.13;31.73;;;-3.60;92.10;;;;;;4996688;28;20192;-87
2023/02/07 07:24:09;;;;;;;34.97;31.60;;;-3.60;92.20;;;;;;4996555;28;20667;-87
2023/02/07 07:26:34;;;;;;;36.50;32.97;;;-3.60;92.10;;;;;;4995166;28;20191;-88
2023/02/07 07:29:01;;;;;;;36.57;32.73;;;-3.60;92.10;;;;;;4996337;28;20234;-87
2023/02/07 07:31:26;;;;;;;39.50;35.60;;;-3.60;92.10;;;;;;4995299;28;20711;-87
2023/02/07 07:33:53;;;;;;;42.37;38.03;;;-3.50;92.10;;;;;;4994989;28;20345;-87
2023/02/07 07:36:19;;;;;;;41.63;37.33;;;-3.50;92.10;;;;;;4996562;28;20178;-88
2023/02/07 07:38:44;;;;;;;40.40;36.33;;;-3.30;92.30;;;;;;4996459;28;20228;-87
2023/02/07 07:41:10;;;;;;;42.93;38.63;;;-3.30;92.30;;;;;;4996178;28;20216;-87
2023/02/07 07:43:35;;;;;;;43.33;39.13;;;-3.30;92.30;;;;;;4994878;28;20229;-88
2023/02/07 07:46:01;;;;;;;46.13;41.73;;;-3.30;92.30;;;;;;4994593;28;20182;-87
2023/02/07 07:48:27;;;;;;;47.73;43.07;;;-3.20;92.40;;;;;;4995842;28;20626;-87
2023/02/07 07:50:53;;;;;;;44.07;39.90;;;-3.10;92.50;;;;;;4993627;28;20292;-88
2023/02/07 07:53:19;;;;;;;48.53;43.77;;;-3.10;92.40;;;;;;4996286;28;20208;-88
2023/02/07 07:55:54;;;;;;;45.70;41.33;;;-3.10;92.40;;;;;;4996230;28;20174;-88
2023/02/07 07:58:21;;;;;;;44.03;39.33;;;-3.20;92.40;;;;;;4994384;28;20660;-88
2023/02/07 08:00:46;;;;;;;47.53;42.80;;;-3.10;92.50;;;;;;4995697;28;20284;-87
2023/02/07 08:03:13;;;;;;;48.30;43.53;;;-3.10;92.50;;;;;;4994752;28;20257;-87
2023/02/07 08:05:39;;;;;;;46.83;42.27;;;-3.10;92.60;;;;;;4996433;28;20174;-88
2023/02/07 08:08:05;;;;;;;48.00;43.00;;;-3.00;92.70;;;;;;4994652;28;20185;-87
2023/02/07 08:10:30;;;;;;;48.87;44.43;;;-3.10;92.70;;;;;;4995718;28;20185;-88
2023/02/07 08:12:57;;;;;;;50.00;45.07;;;-3.00;92.80;;;;;;4994617;28;20195;-88
2023/02/07 08:15:23;;;;;;;47.77;43.13;;;-2.90;92.90;;;;;;4994510;28;20188;-87
2023/02/07 08:17:49;;;;;;;51.67;46.57;;;-2.90;93.00;;;;;;4994925;28;20218;-87
2023/02/07 08:20:15;;;;;;;51.63;46.30;;;-2.80;93.10;;;;;;4994147;28;20267;-87
2023/02/07 08:22:40;;;;;;;53.10;48.03;;;-2.70;93.20;;;;;;4994649;28;20226;-87
2023/02/07 08:25:06;;;;;;;53.77;48.67;;;-2.60;93.40;;;;;;4995753;28;20176;-88
2023/02/07 08:27:34;;;;;;;57.10;51.53;;;-2.60;93.40;;;;;;4994557;28;20181;-88
2023/02/07 08:30:00;;;;;;;55.83;50.33;;;-2.50;93.50;;;;;;4994054;28;20272;-87
2023/02/07 08:32:27;;;;;;;55.60;50.20;;;-2.40;93.60;;;;;;4994320;28;20312;-88
2023/02/07 08:34:52;;;;;;;54.53;49.37;;;-2.30;93.70;;;;;;4994764;28;20234;-87
2023/02/07 08:37:18;;;;;;;56.80;51.37;;;-2.30;93.80;;;;;;4995058;28;20657;-87
2023/02/07 08:39:44;;;;;;;57.40;52.00;;;-2.30;93.80;;;;;;4996070;28;20233;-87
2023/02/07 08:42:10;;;;;;;57.93;52.47;;;-2.20;93.90;;;;;;4996564;28;20218;-87
2023/02/07 08:44:36;;;;;;;61.23;55.30;;;-2.10;94.00;;;;;;4995966;28;20631;-88
2023/02/07 08:47:02;;;;;;;58.97;53.30;;;-2.10;94.00;;;;;;4995290;28;20178;-88
2023/02/07 08:49:27;;;;;;;58.10;52.30;;;-2.00;94.10;;;;;;4996161;28;20701;-87
2023/02/07 08:51:53;;;;;;;60.47;54.57;;;-1.90;94.10;;;;;;4995505;28;20203;-87
2023/02/07 08:54:19;;;;;;;62.77;56.50;;;-1.90;94.10;;;;;;4995275;28;20241;-88
2023/02/07 08:56:44;;;;;;;62.37;56.23;;;-1.90;94.20;;;;;;4996589;28;20234;-88
2023/02/07 08:59:10;;;;;;;64.83;58.23;;;-1.80;94.20;;;;;;4995093;28;20587;-87
2023/02/07 09:01:35;;;;;;;63.53;57.50;;;-1.70;94.30;;;;;;4996155;28;20194;-87
2023/02/07 09:04:01;;;;;;;67.33;60.90;;;-1.60;94.30;;;;;;4993272;28;20209;-88
2023/02/07 09:06:27;;;;;;;68.67;61.87;;;-1.60;94.40;;;;;;4994443;28;20174;-88
2023/02/07 09:08:52;;;;;;;64.70;58.17;;;-1.60;94.40;;;;;;4993210;28;20193;-88
2023/02/07 09:11:18;;;;;;;69.80;63.03;;;-1.50;94.40;;;;;;4992787;28;20343;-87
2023/02/07 09:13:45;;;;;;;69.97;63.13;;;-1.40;94.40;;;;;;4994253;28;20656;-88
2023/02/07 09:16:12;;;;;;;72.43;65.70;;;-1.40;94.40;;;;;;4992851;28;20269;-88
2023/02/07 09:18:37;;;;;;;69.97;63.10;;;-1.30;94.40;;;;;;4994156;28;20655;-88
2023/02/07 09:21:04;;;;;;;70.90;64.07;;;-1.30;94.40;;;;;;4993186;28;20206;-88
2023/02/07 09:23:31;;;;;;;64.07;57.70;;;-1.20;94.40;;;;;;4995323;28;20715;-88
2023/02/07 09:26:01;;;;;;;66.77;60.27;;;-1.30;94.30;;;;;;4993360;28;20196;-87
2023/02/07 09:28:28;;;;;;;69.97;63.07;;;-1.20;94.30;;;;;;4994437;28;20182;-86
2023/02/07 09:30:53;;;;;;;68.33;61.93;;;-1.10;94.30;;;;;;4992887;28;20207;-87
2023/02/07 09:33:19;;;;;;;66.87;60.30;;;-1.10;94.30;;;;;;4992511;28;20607;-88
2023/02/07 09:35:46;;;;;;;71.33;64.13;;;-1.10;94.20;;;;;;4992694;28;20178;-88
2023/02/07 09:38:18;;;;;;;72.37;65.60;;;-1.00;94.30;;;;;;4992682;28;20205;-89
2023/02/07 09:40:46;;;;;;;76.30;68.93;;;-0.90;94.30;;;;;;4992538;28;20257;-89
2023/02/07 09:43:26;;;;;;;69.60;62.50;;;-0.90;94.20;;;;;;4992560;28;20201;-89
2023/02/07 09:46:01;;;;;;;73.13;65.83;;;-0.90;94.10;;;;;;4992434;28;20615;-89
2023/02/07 09:48:33;;;;;;;68.93;62.33;;;-0.80;94.10;;;;;;4992538;28;20643;-90
2023/02/07 09:51:02;;;;;;;70.90;63.70;;;-0.80;94.10;;;;;;4993744;28;20205;-89
2023/02/07 09:53:41;;;;;;;69.00;62.33;;;-0.60;94.00;;;;;;4993661;28;20246;-88
2023/02/07 09:56:08;;;;;;;63.87;57.27;;;-0.60;93.90;;;;;;4992578;28;20179;-88
2023/02/07 09:58:51;;;;;;;70.80;63.43;;;-0.60;93.70;;;;;;4992375;28;20288;-89
2023/02/07 10:01:21;;;;;;;66.97;60.33;;;-0.50;93.80;;;;;;4992882;28;20680;-87
2023/02/07 10:04:05;;;;;;;69.70;61.23;;;-0.30;93.80;;;;;;4993097;28;20190;-86
2023/02/07 10:06:31;;;;;;;69.07;61.57;;;-0.30;93.60;;;;;;4994157;28;20204;-87
2023/02/07 10:08:59;;;;;;;66.20;59.50;;;-0.20;93.40;;;;;;4993913;28;20184;-87
2023/02/07 10:11:44;;;;;;;68.53;61.33;;;-0.20;93.30;;;;;;4993856;28;20276;-87
2023/02/07 10:14:21;;;;;;;65.53;58.80;;;-0.10;93.30;;;;;;4995378;28;20166;-87
2023/02/07 10:17:04;;;;;;;71.83;64.37;;;0.00;93.20;;;;;;4997324;28;20646;-88
2023/02/07 10:19:47;;;;;;;70.50;63.23;;;0.00;93.20;;;;;;4997078;28;20735;-87
2023/02/07 10:22:18;;;;;;;66.13;59.37;;;0.10;93.00;;;;;;4997065;28;20287;-86
2023/02/07 10:25:13;;;;;;;66.30;59.57;;;0.10;92.90;;;;;;4997077;28;20627;-87
2023/02/07 10:27:56;;;;;;;67.00;60.23;;;0.20;93.00;;;;;;4997378;28;20166;-88
2023/02/07 10:30:30;;;;;;;65.67;58.63;;;0.30;92.90;;;;;;4996147;28;20642;-89
2023/02/07 10:33:12;;;;;;;65.90;59.30;;;0.30;92.70;;;;;;4997205;28;20184;-89
2023/02/07 10:35:38;;;;;;;64.47;58.07;;;0.40;92.70;;;;;;4995934;28;20181;-88
2023/02/07 10:38:13;;;;;;;61.10;54.70;;;0.50;92.60;;;;;;4996970;28;20263;-90
2023/02/07 10:40:48;;;;;;;60.13;53.83;;;0.60;92.40;;;;;;4995615;28;20197;-91
2023/02/07 10:43:31;;;;;;;58.80;51.60;;;0.60;92.20;;;;;;4995872;28;20287;-90
2023/02/07 10:46:02;;;;;;;59.23;52.33;;;0.80;92.20;;;;;;4995444;28;20200;-90
2023/02/07 10:48:28;;;;;;;53.27;47.33;;;0.80;91.90;;;;;;4995506;28;20191;-89
2023/02/07 10:50:55;;;;;;;55.67;49.73;;;0.90;91.80;;;;;;4995119;28;20201;-90
2023/02/07 10:53:44;;;;;;;55.80;49.80;;;0.90;91.50;;;;;;4996436;28;20178;-90
2023/02/07 10:56:25;;;;;;;54.80;49.10;;;1.20;91.60;;;;;;4995934;28;20189;-90
2023/02/07 10:58:53;;;;;;;51.80;46.20;;;1.20;91.40;;;;;;4998790;28;20190;-90
2023/02/07 11:01:21;;;;;;;51.67;46.23;;;1.10;91.10;;;;;;4995746;28;20201;-90
2023/02/07 11:03:47;;;;;;;51.47;46.30;;;1.30;91.10;;;;;;4996627;28;20185;-91
2023/02/07 11:06:22;;;;;;;51.47;45.87;;;1.30;90.50;;;;;;4995304;28;20182;-92
2023/02/07 11:08:47;;;;;;;48.53;43.43;;;1.40;90.40;;;;;;4995280;28;20169;-90
2023/02/07 11:11:26;;;;;;;48.50;43.37;;;1.60;90.40;;;;;;4994712;28;20750;-90
2023/02/07 11:13:53;;;;;;;46.83;42.03;;;1.60;90.10;;;;;;4995074;28;20181;-91
2023/02/07 11:16:22;;;;;;;47.70;42.70;;;1.70;89.80;;;;;;4995198;28;20387;-88
2023/02/07 11:19:06;;;;;;;47.23;42.53;;;1.80;90.00;;;;;;4996140;28;20198;-89
2023/02/07 11:21:42;;;;;;;46.03;41.30;;;1.90;89.70;;;;;;5011240;28;20189;-91
2023/02/07 11:24:30;;;;;;;46.03;41.40;;;1.90;89.40;;;;;;5020847;28;20178;-90
2023/02/07 11:27:15;;;;;;;42.80;38.23;;;2.10;89.50;;;;;;5020677;28;20166;-89
2023/02/07 11:30:04;;;;;;;41.10;37.00;;;2.10;88.70;;;;;;5020622;28;20162;-90
2023/02/07 11:32:30;;;;;;;40.30;36.13;;;2.10;88.50;;;;;;5020590;28;20210;-90
2023/02/07 11:35:05;;;;;;;39.57;35.67;;;2.20;88.10;;;;;;5020561;28;20166;-89
2023/02/07 11:37:34;;;;;;;40.17;35.90;;;2.20;88.00;;;;;;5020974;28;20150;-89
2023/02/07 11:40:18;;;;;;;39.23;35.07;;;2.30;87.90;;;;;;5020467;28;20166;-88
2023/02/07 11:42:46;;;;;;;40.07;36.17;;;2.50;87.50;;;;;;5019908;28;20239;-91
2023/02/07 11:45:21;;;;;;;38.73;34.53;;;2.50;87.40;;;;;;5019594;28;20171;-90
2023/02/07 11:47:49;;;;;;;37.43;33.73;;;2.40;87.00;;;;;;5019975;28;20161;-90
2023/02/07 11:50:23;;;;;;;37.33;33.67;;;2.50;86.80;;;;;;5020215;28;20155;-88
2023/02/07 11:52:52;;;;;;;36.40;32.90;;;2.60;86.50;;;;;;5020097;28;20162;-90
2023/02/07 11:55:25;;;;;;;33.63;30.33;;;2.70;86.50;;;;;;5020121;28;20166;-90
2023/02/07 11:57:56;;;;;;;36.37;32.57;;;2.70;86.10;;;;;;5019941;28;20204;-90
2023/02/07 12:00:28;;;;;;;34.57;31.23;;;2.80;86.20;;;;;;5019983;28;20171;-89
2023/02/07 12:03:07;;;;;;;35.50;32.00;;;3.00;86.30;;;;;;5018890;28;20222;-92
2023/02/07 12:05:39;;;;;;;33.77;30.43;;;3.00;85.20;;;;;;5019565;28;20151;-93
2023/02/07 12:08:12;;;;;;;34.37;31.13;;;3.00;85.10;;;;;;5018469;28;20174;-91
2023/02/07 12:10:41;;;;;;;32.27;29.07;;;3.20;85.20;;;;;;5019243;28;20192;-91
2023/02/07 12:13:26;;;;;;;33.90;30.70;;;3.30;84.50;;;;;;5019700;28;20182;-90
2023/02/07 12:16:19;;;;;;;33.03;29.70;;;3.30;84.20;;;;;;5019627;28;20222;-92
2023/02/07 12:18:54;;;;;;;32.33;29.13;;;3.30;83.70;;;;;;5019250;28;20199;-92
2023/02/07 12:21:33;;;;;;;30.85;27.95;;;3.30;83.20;;;;;;5019424;28;20193;-92
2023/02/07 12:24:04;;;;;;;29.77;27.13;;;3.70;83.30;;;;;;5019327;28;20158;-87
2023/02/07 12:26:36;;;;;;;30.27;27.10;;;3.60;82.90;;;;;;5019624;28;20192;-89
2023/02/07 12:29:41;;;;;;;30.77;27.70;;;3.70;82.70;;;;;;5019527;28;20161;-93
2023/02/07 12:32:29;;;;;;;31.00;28.00;;;3.70;82.30;;;;;;5018781;28;20201;-93
2023/02/07 12:35:10;;;;;;;32.73;29.67;;;3.90;82.50;;;;;;5019234;28;20227;-91
2023/02/07 12:37:43;;;;;;;31.57;28.67;;;4.00;81.90;;;;;;5018605;28;20161;-89
2023/02/07 12:40:14;;;;;;;29.27;26.57;;;4.10;82.10;;;;;;5018917;28;20179;-92
2023/02/07 12:42:44;;;;;;;29.57;26.87;;;4.20;82.00;;;;;;5018701;28;20178;-91